Time;durP1;ratioP1;P1;durP2;ratioP2;P2;SDS_P1;SDS_P2;PMS_P1;PMS_P2;Temp;Humidity;BMP_temperature;BMP_pressure;BME280_temperature;BME280_humidity;BME280_pressure;Samples;Min_cycle;Max_cycle;Signal;HPM_P1;HPM_P2
2021/05/16 00:02:06;;;;;;;1.47;0.63;;;14.10;99.90;;;;;;5085821;28;20788;-70
2021/05/16 00:04:32;;;;;;;0.90;0.67;;;14.10;99.90;;;;;;5085604;28;21505;-70
2021/05/16 00:06:59;;;;;;;1.00;0.50;;;14.00;99.90;;;;;;5084467;28;20217;-70
2021/05/16 00:09:26;;;;;;;1.30;0.47;;;13.90;99.90;;;;;;5084569;28;20541;-70
2021/05/16 00:11:52;;;;;;;0.40;0.30;;;13.80;99.90;;;;;;5087900;28;20202;-70
2021/05/16 00:14:19;;;;;;;0.90;0.50;;;13.90;99.90;;;;;;5085189;28;20270;-70
2021/05/16 00:16:45;;;;;;;1.37;0.60;;;13.80;99.90;;;;;;5084014;28;20202;-70
2021/05/16 00:19:11;;;;;;;0.60;0.50;;;13.60;99.90;;;;;;5082197;28;20190;-71
2021/05/16 00:21:38;;;;;;;1.90;0.70;;;13.50;99.90;;;;;;5082529;28;20237;-70
2021/05/16 00:24:05;;;;;;;1.23;0.60;;;13.50;99.90;;;;;;5069049;28;20194;-70
2021/05/16 00:26:31;;;;;;;1.50;0.87;;;13.40;99.90;;;;;;5078718;28;20208;-71
2021/05/16 00:28:57;;;;;;;1.53;0.60;;;13.40;99.90;;;;;;5073714;28;20217;-70
2021/05/16 00:31:24;;;;;;;2.13;0.70;;;13.40;99.90;;;;;;5080393;28;20207;-70
2021/05/16 00:33:50;;;;;;;2.67;0.87;;;13.40;99.90;;;;;;5067437;28;20217;-70
2021/05/16 00:36:16;;;;;;;1.27;0.70;;;13.30;99.90;;;;;;5082897;28;20657;-71
2021/05/16 00:38:42;;;;;;;2.60;0.60;;;13.20;99.90;;;;;;5083248;28;20190;-70
2021/05/16 00:41:09;;;;;;;0.67;0.50;;;13.20;99.90;;;;;;5067923;28;20194;-70
2021/05/16 00:43:35;;;;;;;3.63;1.30;;;13.20;99.90;;;;;;5082921;28;20704;-70
2021/05/16 00:46:01;;;;;;;4.10;0.97;;;13.30;99.90;;;;;;5084142;28;20654;-70
2021/05/16 00:48:28;;;;;;;3.33;0.70;;;13.30;99.90;;;;;;5084815;28;20919;-70
2021/05/16 00:50:54;;;;;;;1.40;0.60;;;13.30;99.90;;;;;;5099189;28;20916;-71
2021/05/16 00:53:23;;;;;;;5.60;1.00;;;13.40;99.90;;;;;;5064490;28;20200;-70
2021/05/16 00:55:54;;;;;;;0.97;0.60;;;13.50;99.90;;;;;;5082145;28;20190;-71
2021/05/16 00:58:20;;;;;;;1.50;0.60;;;13.60;99.90;;;;;;5077375;28;20205;-70
2021/05/16 01:00:47;;;;;;;2.17;0.60;;;13.60;99.90;;;;;;5078712;28;20197;-70
2021/05/16 01:03:14;;;;;;;1.03;0.60;;;13.70;99.90;;;;;;5086026;28;20546;-70
2021/05/16 01:05:43;;;;;;;0.53;0.50;;;13.70;99.90;;;;;;5084860;28;21197;-70
2021/05/16 01:08:11;;;;;;;1.57;0.77;;;13.60;99.90;;;;;;5088351;28;20186;-70
2021/05/16 01:10:38;;;;;;;1.47;0.80;;;13.60;99.90;;;;;;5083772;28;20221;-71
2021/05/16 01:13:08;;;;;;;1.10;0.60;;;13.50;99.90;;;;;;5080616;28;20218;-70
2021/05/16 01:15:40;;;;;;;0.43;0.30;;;13.30;99.90;;;;;;5078937;28;20194;-69
2021/05/16 01:18:07;;;;;;;2.03;0.70;;;13.40;99.90;;;;;;5080196;28;20227;-70
2021/05/16 01:20:38;;;;;;;1.33;0.57;;;13.50;99.90;;;;;;5083314;28;20186;-70
2021/05/16 01:23:18;;;;;;;2.87;0.70;;;13.60;99.90;;;;;;5083931;28;20851;-71
2021/05/16 01:25:48;;;;;;;3.30;0.77;;;13.80;99.90;;;;;;5086759;28;20186;-70
2021/05/16 01:28:18;;;;;;;1.03;0.53;;;14.00;99.90;;;;;;5082360;28;20211;-70
2021/05/16 01:30:47;;;;;;;2.30;0.50;;;14.10;99.90;;;;;;5077289;28;20613;-70
2021/05/16 01:33:14;;;;;;;1.73;0.60;;;14.10;99.90;;;;;;5084665;28;20182;-70
2021/05/16 01:35:41;;;;;;;0.60;0.50;;;14.30;99.90;;;;;;5066734;28;20182;-70
2021/05/16 01:38:08;;;;;;;0.60;0.60;;;14.40;99.90;;;;;;5083284;28;20186;-70
2021/05/16 01:40:38;;;;;;;1.10;0.50;;;14.30;99.90;;;;;;5082868;28;20186;-69
2021/05/16 01:43:11;;;;;;;0.60;0.50;;;14.30;99.90;;;;;;5083990;28;20211;-70
2021/05/16 01:45:39;;;;;;;1.37;0.50;;;14.20;99.90;;;;;;5065757;28;20194;-69
2021/05/16 01:48:05;;;;;;;0.90;0.63;;;14.10;99.90;;;;;;5089741;28;20186;-70
2021/05/16 01:50:36;;;;;;;2.00;0.60;;;13.80;99.90;;;;;;5070232;28;20271;-70
2021/05/16 01:53:06;;;;;;;1.03;0.53;;;13.80;99.90;;;;;;5082880;28;20197;-69
2021/05/16 01:55:33;;;;;;;2.57;0.73;;;13.70;99.90;;;;;;5090338;28;20201;-70
2021/05/16 01:58:02;;;;;;;6.27;1.00;;;13.70;99.90;;;;;;5090061;28;20273;-69
2021/05/16 02:00:37;;;;;;;1.00;0.70;;;13.60;99.90;;;;;;5078381;28;20561;-69
2021/05/16 02:03:04;;;;;;;0.73;0.50;;;13.60;99.90;;;;;;5072011;28;20184;-69
2021/05/16 02:05:32;;;;;;;0.53;0.50;;;13.50;99.90;;;;;;5084045;28;20281;-69
2021/05/16 02:07:59;;;;;;;4.90;0.70;;;13.50;99.90;;;;;;5086957;28;20190;-69
2021/05/16 02:10:26;;;;;;;1.10;0.53;;;13.40;99.90;;;;;;5088025;28;20210;-69
2021/05/16 02:12:52;;;;;;;5.70;0.93;;;13.40;99.90;;;;;;5070886;28;20197;-69
2021/05/16 02:15:18;;;;;;;1.53;0.50;;;13.20;99.90;;;;;;5084381;28;20199;-69
2021/05/16 02:17:45;;;;;;;3.80;0.63;;;13.50;99.90;;;;;;5057297;28;20190;-69
2021/05/16 02:20:18;;;;;;;2.97;0.70;;;13.20;99.90;;;;;;5083291;28;20691;-69
2021/05/16 02:22:45;;;;;;;3.23;0.67;;;13.10;99.90;;;;;;5087658;28;20201;-69
2021/05/16 02:25:13;;;;;;;1.90;0.50;;;13.00;99.90;;;;;;5069814;28;20603;-69
2021/05/16 02:27:40;;;;;;;4.53;0.77;;;13.00;99.90;;;;;;5083426;28;20233;-71
2021/05/16 02:30:09;;;;;;;2.00;0.57;;;13.10;99.90;;;;;;5086204;28;20197;-71
2021/05/16 02:32:38;;;;;;;2.80;0.70;;;13.10;99.90;;;;;;5084313;28;20340;-71
2021/05/16 02:35:09;;;;;;;2.93;0.80;;;13.20;99.90;;;;;;5083734;28;20654;-71
2021/05/16 02:37:36;;;;;;;0.90;0.60;;;13.10;99.90;;;;;;5086919;28;20668;-68
2021/05/16 02:40:03;;;;;;;3.13;0.70;;;13.10;99.90;;;;;;5088145;28;20193;-69
2021/05/16 02:42:30;;;;;;;2.67;0.70;;;13.30;99.90;;;;;;5085112;28;20231;-69
2021/05/16 02:44:56;;;;;;;2.80;0.70;;;13.30;99.90;;;;;;5083337;28;20658;-69
2021/05/16 02:47:23;;;;;;;0.80;0.57;;;13.30;99.90;;;;;;5075922;28;20206;-69
2021/05/16 02:49:49;;;;;;;1.43;0.70;;;13.30;99.90;;;;;;5082839;28;20210;-69
2021/05/16 02:52:16;;;;;;;5.93;0.70;;;13.20;99.90;;;;;;5087559;28;20218;-69
2021/05/16 02:54:43;;;;;;;2.37;0.57;;;13.20;99.90;;;;;;5066152;28;20178;-69
2021/05/16 02:57:10;;;;;;;1.90;0.60;;;13.30;99.90;;;;;;5084474;28;20266;-69
2021/05/16 02:59:37;;;;;;;1.13;0.60;;;13.40;99.90;;;;;;5086921;28;20223;-69
2021/05/16 03:02:03;;;;;;;1.63;0.60;;;13.30;99.90;;;;;;5086188;28;20243;-69
2021/05/16 03:04:31;;;;;;;1.70;0.70;;;13.30;99.90;;;;;;5086481;28;20209;-69
2021/05/16 03:06:57;;;;;;;1.63;0.60;;;13.40;99.90;;;;;;5086156;28;20297;-68
2021/05/16 03:09:24;;;;;;;2.80;0.80;;;13.50;99.90;;;;;;5097316;27;20899;-69
2021/05/16 03:11:50;;;;;;;3.03;0.60;;;13.50;99.90;;;;;;5083933;28;20635;-71
2021/05/16 03:14:17;;;;;;;2.33;0.73;;;13.60;99.90;;;;;;5070443;28;20234;-69
2021/05/16 03:16:43;;;;;;;0.67;0.60;;;13.50;99.90;;;;;;5081562;28;20210;-69
2021/05/16 03:19:09;;;;;;;2.27;0.40;;;13.50;99.90;;;;;;5074909;28;20213;-71
2021/05/16 03:21:35;;;;;;;1.27;0.43;;;13.50;99.90;;;;;;5063899;28;20321;-69
2021/05/16 03:24:02;;;;;;;2.77;0.80;;;13.50;99.90;;;;;;5084085;28;20194;-69
2021/05/16 03:26:29;;;;;;;1.30;0.67;;;13.70;99.90;;;;;;5063671;28;20822;-69
2021/05/16 03:28:56;;;;;;;0.83;0.50;;;13.70;99.90;;;;;;5068370;28;20238;-71
2021/05/16 03:31:22;;;;;;;3.93;0.60;;;13.90;99.60;;;;;;5065839;28;20209;-68
2021/05/16 03:33:48;;;;;;;1.97;0.63;;;14.00;99.60;;;;;;5070630;28;20181;-69
2021/05/16 03:36:14;;;;;;;1.93;0.60;;;14.10;98.20;;;;;;5083913;28;20186;-69
2021/05/16 03:38:40;;;;;;;0.63;0.40;;;14.30;97.60;;;;;;5063613;28;20182;-69
2021/05/16 03:41:07;;;;;;;2.93;0.70;;;14.30;97.60;;;;;;5100831;27;20186;-69
2021/05/16 03:43:33;;;;;;;1.07;0.63;;;14.30;97.90;;;;;;5083397;28;20182;-68
2021/05/16 03:45:59;;;;;;;2.47;0.50;;;14.30;97.70;;;;;;5083679;28;20212;-70
2021/05/16 03:48:25;;;;;;;2.40;0.70;;;14.30;98.30;;;;;;5081306;28;20182;-72
2021/05/16 03:50:52;;;;;;;0.80;0.50;;;14.30;99.00;;;;;;5076899;28;20846;-71
2021/05/16 03:53:18;;;;;;;1.47;0.50;;;14.20;99.10;;;;;;5081412;28;20251;-71
2021/05/16 03:55:44;;;;;;;0.77;0.40;;;14.20;99.50;;;;;;5082827;28;20193;-72
2021/05/16 03:58:11;;;;;;;1.00;0.63;;;14.10;99.10;;;;;;5089366;28;20527;-72
2021/05/16 04:00:37;;;;;;;2.30;0.70;;;14.10;99.60;;;;;;5098573;28;20222;-70
2021/05/16 04:03:04;;;;;;;2.53;0.63;;;13.90;99.40;;;;;;5066838;28;20212;-72
2021/05/16 04:05:30;;;;;;;2.80;0.83;;;13.90;99.60;;;;;;5101341;28;20334;-68
2021/05/16 04:07:56;;;;;;;3.33;0.57;;;13.90;99.60;;;;;;5067080;28;20654;-69
2021/05/16 04:10:23;;;;;;;2.30;0.50;;;13.80;98.70;;;;;;5099915;28;20888;-69
2021/05/16 04:12:49;;;;;;;1.33;0.50;;;13.90;99.10;;;;;;5086676;28;20186;-69
2021/05/16 04:15:16;;;;;;;2.33;0.60;;;13.90;99.90;;;;;;5085469;28;20201;-70
2021/05/16 04:17:42;;;;;;;1.80;0.60;;;13.90;99.90;;;;;;5082376;28;20202;-69
2021/05/16 04:20:09;;;;;;;2.10;0.50;;;14.00;99.60;;;;;;5072047;28;20190;-69
2021/05/16 04:22:36;;;;;;;1.83;0.50;;;14.20;99.90;;;;;;5063489;28;20614;-69
2021/05/16 04:25:04;;;;;;;1.90;0.80;;;14.30;99.90;;;;;;5069430;28;20178;-69
2021/05/16 04:27:30;;;;;;;1.07;0.60;;;14.40;99.90;;;;;;5081265;28;20324;-69
2021/05/16 04:29:56;;;;;;;1.23;0.50;;;14.50;99.90;;;;;;5087028;28;20235;-70
2021/05/16 04:32:22;;;;;;;0.83;0.50;;;14.70;99.90;;;;;;5090327;28;20213;-69
2021/05/16 04:34:49;;;;;;;1.20;0.57;;;14.80;99.90;;;;;;5084030;28;20274;-69
2021/05/16 04:37:15;;;;;;;3.13;0.53;;;14.90;99.90;;;;;;5099348;28;20273;-69
2021/05/16 04:39:42;;;;;;;1.87;0.70;;;15.10;99.90;;;;;;5067814;28;20190;-69
2021/05/16 04:42:09;;;;;;;3.80;0.90;;;15.40;99.90;;;;;;5082362;28;20235;-71
2021/05/16 04:44:35;;;;;;;1.47;0.60;;;15.70;99.90;;;;;;5067425;28;20186;-71
2021/05/16 04:47:02;;;;;;;2.13;0.80;;;16.00;99.20;;;;;;5078191;28;20229;-71
2021/05/16 04:49:28;;;;;;;0.97;0.50;;;16.30;96.80;;;;;;5080801;28;20911;-71
2021/05/16 04:51:54;;;;;;;1.70;0.43;;;16.50;97.80;;;;;;5056935;28;20267;-72
2021/05/16 04:54:21;;;;;;;2.73;0.57;;;16.30;98.80;;;;;;5083414;28;20186;-71
2021/05/16 04:56:47;;;;;;;0.73;0.50;;;16.20;99.90;;;;;;5067703;28;20190;-71
2021/05/16 04:59:13;;;;;;;2.67;0.60;;;16.20;99.90;;;;;;5085596;28;20275;-72
2021/05/16 05:01:41;;;;;;;0.97;0.50;;;16.20;99.70;;;;;;5083942;28;20696;-72
2021/05/16 05:04:08;;;;;;;2.40;0.60;;;16.30;99.80;;;;;;5083199;28;20273;-72
2021/05/16 05:06:34;;;;;;;1.60;0.63;;;16.70;99.30;;;;;;5082395;28;20681;-73
2021/05/16 05:09:05;;;;;;;2.23;0.67;;;17.10;97.60;;;;;;5066571;28;20952;-73
2021/05/16 05:11:35;;;;;;;0.67;0.50;;;17.70;94.30;;;;;;5064553;28;20706;-72
2021/05/16 05:14:02;;;;;;;1.43;0.67;;;17.60;96.30;;;;;;5068137;28;20241;-72
2021/05/16 05:16:28;;;;;;;2.53;0.80;;;17.50;97.20;;;;;;5066680;28;20224;-70
2021/05/16 05:18:54;;;;;;;1.03;0.50;;;17.30;97.30;;;;;;5074209;28;20194;-72
2021/05/16 05:21:20;;;;;;;0.87;0.60;;;17.40;98.60;;;;;;5064719;28;20190;-73
2021/05/16 05:23:47;;;;;;;1.20;0.50;;;17.40;98.70;;;;;;5082327;28;20256;-70
2021/05/16 05:26:13;;;;;;;4.93;0.70;;;17.30;98.70;;;;;;5087607;28;20198;-73
2021/05/16 05:28:39;;;;;;;0.90;0.60;;;17.30;99.20;;;;;;5089891;28;20638;-70
2021/05/16 05:31:05;;;;;;;1.23;0.60;;;17.50;97.40;;;;;;5068399;28;20213;-73
2021/05/16 05:33:33;;;;;;;0.90;0.60;;;17.40;99.40;;;;;;5104648;27;20225;-70
2021/05/16 05:36:00;;;;;;;1.50;0.70;;;17.40;98.70;;;;;;5087610;28;20189;-70
2021/05/16 05:38:26;;;;;;;1.03;0.60;;;17.40;98.90;;;;;;5086588;28;20191;-70
2021/05/16 05:40:52;;;;;;;1.70;0.60;;;17.70;97.30;;;;;;5089026;28;20201;-70
2021/05/16 05:43:19;;;;;;;1.17;0.60;;;17.90;97.60;;;;;;5087032;28;20252;-72
2021/05/16 05:45:45;;;;;;;2.87;0.60;;;17.80;99.90;;;;;;5087541;28;20735;-72
2021/05/16 05:48:11;;;;;;;6.70;0.70;;;17.90;98.60;;;;;;5069193;28;20622;-70
2021/05/16 05:50:38;;;;;;;0.77;0.60;;;18.10;97.80;;;;;;5084209;28;20658;-70
2021/05/16 05:53:04;;;;;;;2.30;0.80;;;18.00;99.60;;;;;;5078793;28;20195;-70
2021/05/16 05:55:33;;;;;;;1.80;0.57;;;18.10;97.60;;;;;;5085744;28;20183;-70
2021/05/16 05:58:00;;;;;;;1.90;0.73;;;18.30;97.90;;;;;;5090657;28;20234;-71
2021/05/16 06:00:29;;;;;;;1.80;0.80;;;18.50;96.60;;;;;;5069343;28;20186;-72
2021/05/16 06:02:57;;;;;;;0.97;0.67;;;18.70;95.20;;;;;;5089586;28;20209;-70
2021/05/16 06:05:26;;;;;;;1.30;0.70;;;18.80;95.90;;;;;;5083603;28;20199;-69
2021/05/16 06:07:53;;;;;;;1.40;0.60;;;19.00;95.60;;;;;;5072752;28;20194;-69
2021/05/16 06:10:20;;;;;;;1.33;0.60;;;19.10;96.70;;;;;;5069248;28;20489;-71
2021/05/16 06:12:46;;;;;;;2.17;0.60;;;19.10;95.10;;;;;;5071740;28;20281;-71
2021/05/16 06:15:13;;;;;;;2.43;0.87;;;19.10;96.10;;;;;;5087701;28;20192;-72
2021/05/16 06:17:40;;;;;;;3.83;1.10;;;19.00;97.20;;;;;;5086755;28;20197;-72
2021/05/16 06:20:07;;;;;;;3.23;0.97;;;19.20;95.70;;;;;;5087404;28;20252;-71
2021/05/16 06:22:34;;;;;;;4.83;0.67;;;19.60;94.10;;;;;;5080964;28;20190;-71
2021/05/16 06:25:00;;;;;;;1.80;0.60;;;19.60;94.70;;;;;;5081389;28;20182;-72
2021/05/16 06:27:27;;;;;;;1.17;0.70;;;19.70;93.10;;;;;;5069528;28;20186;-71
2021/05/16 06:29:53;;;;;;;10.03;0.87;;;19.80;86.20;;;;;;5085750;28;20583;-72
2021/05/16 06:32:19;;;;;;;3.53;0.70;;;19.80;91.00;;;;;;5087661;28;20245;-71
2021/05/16 06:34:46;;;;;;;3.17;0.80;;;20.00;91.40;;;;;;5070127;28;20183;-71
2021/05/16 06:37:12;;;;;;;1.07;0.63;;;20.20;91.10;;;;;;5078990;28;20189;-71
2021/05/16 06:39:38;;;;;;;4.77;1.00;;;20.20;91.50;;;;;;5069354;28;20197;-72
2021/05/16 06:42:05;;;;;;;1.93;0.70;;;20.50;90.80;;;;;;5069116;28;20216;-72
2021/05/16 06:44:32;;;;;;;2.03;0.80;;;20.50;92.10;;;;;;5071189;28;20962;-72
2021/05/16 06:46:58;;;;;;;3.20;0.93;;;20.70;93.10;;;;;;5078270;28;20204;-72
2021/05/16 06:49:24;;;;;;;4.60;0.80;;;20.60;92.80;;;;;;5084375;28;20198;-72
2021/05/16 06:51:50;;;;;;;2.93;1.00;;;20.50;92.50;;;;;;5078754;28;20222;-72
2021/05/16 06:54:17;;;;;;;3.63;1.00;;;20.70;92.10;;;;;;5059507;28;20600;-70
2021/05/16 06:56:43;;;;;;;4.67;0.90;;;21.00;92.20;;;;;;5079342;28;20186;-71
2021/05/16 06:59:10;;;;;;;4.83;1.07;;;20.90;92.70;;;;;;5087066;28;20271;-71
2021/05/16 07:01:37;;;;;;;1.63;0.90;;;20.90;93.80;;;;;;5083457;28;20194;-72
2021/05/16 07:04:07;;;;;;;4.13;0.80;;;20.90;93.40;;;;;;5058824;28;20194;-71
2021/05/16 07:06:34;;;;;;;1.10;0.67;;;21.10;92.80;;;;;;5083625;28;20666;-71
2021/05/16 07:09:00;;;;;;;4.37;0.90;;;21.40;92.60;;;;;;5098548;27;20186;-72
2021/05/16 07:11:34;;;;;;;1.40;0.80;;;21.50;92.30;;;;;;5083450;28;20259;-72
2021/05/16 07:14:02;;;;;;;2.37;1.00;;;21.50;92.00;;;;;;5066512;28;20551;-72
2021/05/16 07:16:28;;;;;;;6.80;1.40;;;21.60;92.40;;;;;;5083046;28;20628;-72
2021/05/16 07:18:55;;;;;;;1.67;0.50;;;21.60;91.50;;;;;;5067014;28;20526;-71
2021/05/16 07:21:21;;;;;;;1.90;1.00;;;21.70;92.00;;;;;;5067071;28;20310;-72
2021/05/16 07:23:48;;;;;;;1.97;0.80;;;21.70;92.80;;;;;;5067633;28;20269;-72
2021/05/16 07:26:14;;;;;;;3.70;0.87;;;21.80;91.70;;;;;;5083155;28;20631;-70
2021/05/16 07:28:41;;;;;;;2.57;0.70;;;21.90;92.20;;;;;;5066365;28;20251;-69
2021/05/16 07:31:07;;;;;;;3.07;1.00;;;22.10;91.40;;;;;;5085300;28;20253;-73
2021/05/16 07:33:34;;;;;;;5.60;1.20;;;22.20;89.50;;;;;;5077937;28;20574;-70
2021/05/16 07:36:00;;;;;;;3.70;0.90;;;22.50;90.30;;;;;;5072898;28;20213;-72
2021/05/16 07:38:26;;;;;;;7.93;0.83;;;22.60;91.10;;;;;;5083812;28;20213;-72
2021/05/16 07:40:53;;;;;;;3.93;0.93;;;22.50;90.30;;;;;;5062544;28;20190;-72
2021/05/16 07:43:20;;;;;;;6.00;0.90;;;22.80;90.50;;;;;;5081225;28;20215;-71
2021/05/16 07:45:47;;;;;;;2.33;1.00;;;23.30;89.20;;;;;;5086236;28;20202;-70
2021/05/16 07:48:13;;;;;;;1.80;0.83;;;23.10;90.60;;;;;;5083194;28;20202;-72
2021/05/16 07:50:40;;;;;;;2.63;1.03;;;23.20;88.10;;;;;;5067015;28;20275;-72
2021/05/16 07:53:06;;;;;;;1.90;0.80;;;23.50;86.90;;;;;;5081056;28;20229;-72
2021/05/16 07:55:32;;;;;;;4.07;1.30;;;23.40;88.50;;;;;;5081177;28;20187;-72
2021/05/16 07:57:59;;;;;;;3.30;1.00;;;23.50;87.40;;;;;;5084132;28;20204;-71
2021/05/16 08:00:25;;;;;;;3.10;0.90;;;23.50;83.00;;;;;;5085789;28;20182;-70
2021/05/16 08:02:51;;;;;;;7.00;0.93;;;23.50;84.80;;;;;;5079840;28;20519;-70
2021/05/16 08:05:18;;;;;;;2.20;0.80;;;23.60;81.80;;;;;;5056341;28;20186;-69
2021/05/16 08:07:44;;;;;;;2.33;0.90;;;23.70;78.40;;;;;;5064146;28;20745;-70
2021/05/16 08:10:11;;;;;;;2.97;0.82;;;23.90;74.40;;;;;;5080908;28;20342;-70
2021/05/16 08:12:38;;;;;;;2.80;0.97;;;23.80;71.80;;;;;;5065680;28;20238;-70
2021/05/16 08:15:07;;;;;;;3.93;1.13;;;23.80;74.30;;;;;;5067557;28;20182;-70
2021/05/16 08:17:34;;;;;;;1.65;0.75;;;23.90;72.40;;;;;;5066427;28;20211;-72
2021/05/16 08:20:04;;;;;;;5.55;1.10;;;24.20;75.00;;;;;;5085506;28;20186;-71
2021/05/16 08:22:31;;;;;;;2.33;0.90;;;24.30;75.70;;;;;;5081743;28;20200;-71
2021/05/16 08:25:31;;;;;;;10.75;1.20;;;24.40;74.80;;;;;;5080336;28;20702;-71
2021/05/16 08:27:58;;;;;;;5.10;1.25;;;24.30;79.60;;;;;;5066418;28;20316;-72
2021/05/16 08:30:24;;;;;;;3.05;1.25;;;24.40;89.70;;;;;;5079677;28;20190;-71
2021/05/16 08:32:51;;;;;;;4.60;1.30;;;24.70;90.10;;;;;;5075641;28;20187;-72
2021/05/16 08:35:18;;;;;;;4.93;0.98;;;24.80;91.80;;;;;;5065852;28;21029;-72
2021/05/16 08:37:45;;;;;;;4.65;1.08;;;24.90;91.90;;;;;;5078652;28;20273;-71
2021/05/16 08:40:14;;;;;;;5.15;1.00;;;24.90;90.20;;;;;;5081174;28;20187;-71
2021/05/16 08:42:42;;;;;;;2.07;0.90;;;25.10;82.60;;;;;;5079893;28;20189;-72
2021/05/16 08:45:12;;;;;;;3.25;1.08;;;25.00;82.30;;;;;;5064327;28;20186;-71
2021/05/16 08:47:41;;;;;;;3.88;1.08;;;25.00;86.10;;;;;;5080433;28;20196;-72
2021/05/16 08:50:13;;;;;;;4.30;1.15;;;25.20;86.90;;;;;;5080367;28;20193;-71
2021/05/16 08:52:42;;;;;;;8.15;1.25;;;25.40;87.20;;;;;;5081114;28;20216;-71
2021/05/16 08:55:11;;;;;;;1.92;0.90;;;25.40;86.20;;;;;;5083200;28;20185;-71
2021/05/16 08:57:37;;;;;;;3.92;1.30;;;25.10;87.00;;;;;;5077958;28;20205;-72
2021/05/16 09:00:19;;;;;;;4.43;0.95;;;25.10;87.80;;;;;;5077590;28;20615;-72
2021/05/16 09:03:03;;;;;;;5.03;1.13;;;25.30;87.00;;;;;;5085790;28;20280;-72
2021/05/16 09:05:35;;;;;;;3.40;1.02;;;25.50;85.30;;;;;;5063571;28;20190;-72
2021/05/16 09:08:23;;;;;;;4.55;1.30;;;25.20;85.80;;;;;;5079026;28;20194;-72
2021/05/16 09:10:59;;;;;;;4.53;1.10;;;25.30;86.90;;;;;;5078935;28;20218;-72
2021/05/16 09:13:45;;;;;;;6.97;1.20;;;25.60;88.80;;;;;;5064683;28;20208;-72
2021/05/16 09:16:19;;;;;;;4.53;1.02;;;25.70;87.70;;;;;;5071015;28;20676;-72
2021/05/16 09:18:54;;;;;;;3.70;1.08;;;26.10;87.60;;;;;;5083058;28;20697;-72
2021/05/16 09:21:27;;;;;;;20.05;1.50;;;26.30;86.10;;;;;;5083240;28;20223;-70
2021/05/16 09:24:03;;;;;;;5.85;1.10;;;26.60;84.50;;;;;;5082172;28;20201;-71
2021/05/16 09:26:38;;;;;;;12.10;1.48;;;26.50;82.00;;;;;;5078869;28;20641;-71
2021/05/16 09:29:43;;;;;;;6.05;1.42;;;26.40;83.50;;;;;;5059474;28;20293;-70
2021/05/16 09:32:10;;;;;;;14.10;1.50;;;26.60;86.00;;;;;;5080942;28;20690;-70
2021/05/16 09:34:39;;;;;;;3.00;1.08;;;26.60;83.30;;;;;;5083387;28;20202;-70
2021/05/16 09:37:08;;;;;;;3.58;0.93;;;26.70;83.20;;;;;;5062944;28;20183;-70
2021/05/16 09:39:36;;;;;;;2.53;1.10;;;27.10;79.30;;;;;;5079526;28;20586;-69
2021/05/16 09:42:13;;;;;;;1.63;0.93;;;27.20;79.20;;;;;;5079930;28;20511;-70
2021/05/16 09:44:44;;;;;;;84.30;3.35;;;27.30;72.20;;;;;;5088559;28;20190;-69
2021/05/16 09:47:18;;;;;;;4.75;1.00;;;27.20;74.30;;;;;;5084460;28;20205;-70
2021/05/16 09:49:50;;;;;;;9.43;1.20;;;27.30;72.30;;;;;;5084299;28;20181;-70
2021/05/16 09:52:35;;;;;;;4.35;1.10;;;27.50;71.00;;;;;;5082398;28;20910;-70
2021/05/16 09:55:09;;;;;;;16.60;1.75;;;27.20;70.80;;;;;;5081516;28;20706;-69
2021/05/16 09:57:38;;;;;;;1.65;1.02;;;27.20;70.10;;;;;;5082561;28;20215;-69
2021/05/16 10:00:11;;;;;;;9.52;1.20;;;26.90;70.20;;;;;;5073794;28;20285;-70
2021/05/16 10:02:39;;;;;;;4.45;0.98;;;27.00;72.70;;;;;;5081269;28;20221;-69
2021/05/16 10:05:09;;;;;;;3.95;1.30;;;27.20;72.90;;;;;;5080888;28;20778;-69
2021/05/16 10:07:38;;;;;;;4.65;1.35;;;27.20;76.40;;;;;;5084046;28;20206;-70
2021/05/16 10:10:11;;;;;;;5.13;1.38;;;27.00;78.20;;;;;;5087303;28;20196;-70
2021/05/16 10:12:40;;;;;;;2.53;1.30;;;27.10;78.70;;;;;;5066708;28;20217;-69
2021/05/16 10:15:25;;;;;;;3.53;1.17;;;26.80;80.10;;;;;;5085776;28;20182;-69
2021/05/16 10:17:55;;;;;;;9.40;1.40;;;27.10;79.00;;;;;;5084000;28;20276;-69
2021/05/16 10:20:27;;;;;;;4.95;1.20;;;26.70;79.60;;;;;;5086871;28;20197;-69
2021/05/16 10:22:54;;;;;;;3.25;1.38;;;26.50;79.90;;;;;;5086856;28;20174;-69
2021/05/16 10:25:43;;;;;;;5.18;1.15;;;26.50;78.80;;;;;;5082658;28;20205;-70
2021/05/16 10:28:12;;;;;;;6.65;1.27;;;26.60;78.80;;;;;;5083940;28;20196;-69
2021/05/16 10:30:41;;;;;;;6.00;1.10;;;26.80;80.60;;;;;;5094580;27;20191;-69
2021/05/16 10:33:27;;;;;;;5.60;1.10;;;26.90;78.50;;;;;;5062893;28;20492;-69
2021/05/16 10:35:53;;;;;;;3.35;1.10;;;26.90;79.20;;;;;;5081618;28;21060;-70
2021/05/16 10:38:42;;;;;;;3.42;1.17;;;27.20;77.90;;;;;;5082677;28;20264;-69
2021/05/16 10:41:25;;;;;;;2.75;1.10;;;27.00;75.20;;;;;;5082659;28;20190;-71
2021/05/16 10:44:30;;;;;;;2.78;1.00;;;26.90;76.20;;;;;;5087544;28;20300;-69
2021/05/16 10:47:01;;;;;;;4.05;1.30;;;27.00;75.60;;;;;;5067235;28;20205;-70
2021/05/16 10:49:31;;;;;;;4.63;1.20;;;27.00;75.00;;;;;;5090541;28;20190;-69
2021/05/16 10:51:57;;;;;;;4.70;1.10;;;27.00;76.50;;;;;;5081031;28;20297;-69
2021/05/16 10:54:35;;;;;;;4.90;1.27;;;27.30;78.00;;;;;;5087304;28;20183;-69
2021/05/16 10:57:27;;;;;;;4.40;1.10;;;27.20;78.40;;;;;;5082257;28;20186;-70
2021/05/16 10:59:54;;;;;;;6.28;1.20;;;26.90;78.20;;;;;;5097504;28;20186;-70
2021/05/16 11:02:59;;;;;;;7.13;0.90;;;26.80;78.30;;;;;;5071151;28;20190;-69
2021/05/16 11:05:48;;;;;;;3.97;1.13;;;27.00;74.90;;;;;;5083150;28;20541;-70
2021/05/16 11:08:20;;;;;;;4.07;1.30;;;26.50;75.70;;;;;;5080192;28;20259;-70
2021/05/16 11:10:52;;;;;;;4.70;1.08;;;26.60;74.30;;;;;;5080024;28;20271;-69
2021/05/16 11:13:31;;;;;;;4.40;1.17;;;26.20;75.60;;;;;;5067082;28;20205;-70
2021/05/16 11:16:07;;;;;;;23.67;1.73;;;26.40;76.50;;;;;;5082352;28;20197;-70
2021/05/16 11:18:34;;;;;;;4.80;0.85;;;26.60;76.60;;;;;;5083438;28;20181;-72
2021/05/16 11:21:07;;;;;;;1.55;1.10;;;25.80;75.80;;;;;;5079226;28;20194;-70
2021/05/16 11:23:38;;;;;;;12.15;1.23;;;26.30;76.70;;;;;;5081780;28;20248;-70
2021/05/16 11:26:13;;;;;;;2.22;0.82;;;26.30;75.60;;;;;;5062676;28;20193;-70
2021/05/16 11:29:07;;;;;;;4.57;1.10;;;26.30;75.20;;;;;;5080269;28;20200;-70
2021/05/16 11:31:34;;;;;;;4.60;0.93;;;26.30;76.50;;;;;;5076355;28;20267;-70
2021/05/16 11:34:05;;;;;;;3.13;1.00;;;26.40;73.10;;;;;;5055957;28;20277;-70
2021/05/16 11:36:35;;;;;;;7.30;0.95;;;26.60;73.00;;;;;;5079440;28;20183;-70
2021/05/16 11:39:05;;;;;;;3.78;1.15;;;26.40;73.30;;;;;;5082227;28;20368;-70
2021/05/16 11:41:41;;;;;;;2.85;1.05;;;26.20;72.20;;;;;;5096683;28;20198;-72
2021/05/16 11:44:21;;;;;;;10.90;1.15;;;26.00;72.70;;;;;;5074669;28;20665;-72
2021/05/16 11:46:48;;;;;;;3.72;1.15;;;26.20;72.90;;;;;;5061512;28;22285;-72
2021/05/16 11:49:28;;;;;;;3.63;0.93;;;26.50;73.50;;;;;;5085551;28;20673;-72
2021/05/16 11:52:03;;;;;;;7.18;1.17;;;26.70;73.20;;;;;;5078891;28;20297;-69
2021/05/16 11:54:43;;;;;;;7.32;1.30;;;26.60;73.50;;;;;;5077841;28;20296;-70
2021/05/16 11:57:21;;;;;;;3.83;0.90;;;26.70;73.20;;;;;;5079058;28;20279;-69
2021/05/16 11:59:48;;;;;;;6.78;1.10;;;26.80;74.50;;;;;;5080067;28;20185;-70
2021/05/16 12:02:15;;;;;;;6.18;1.33;;;26.40;76.40;;;;;;5066836;28;20301;-71
2021/05/16 12:04:41;;;;;;;3.60;0.90;;;26.60;77.60;;;;;;5073066;28;20308;-70
2021/05/16 12:07:09;;;;;;;5.78;1.33;;;26.70;78.10;;;;;;5073399;28;20206;-70
2021/05/16 12:09:41;;;;;;;3.35;1.30;;;26.10;76.50;;;;;;5063444;28;20190;-69
2021/05/16 12:12:25;;;;;;;10.18;1.40;;;25.80;79.00;;;;;;5066185;28;20198;-69
2021/05/16 12:14:55;;;;;;;11.68;1.50;;;26.30;75.90;;;;;;5080176;28;20186;-72
2021/05/16 12:17:38;;;;;;;2.65;0.93;;;26.60;73.80;;;;;;5068545;28;20214;-70
2021/05/16 12:20:06;;;;;;;3.85;1.13;;;26.20;76.30;;;;;;5067566;28;20671;-69
2021/05/16 12:22:38;;;;;;;3.70;1.00;;;26.20;74.60;;;;;;5080518;28;20266;-71
2021/05/16 12:25:07;;;;;;;2.63;0.85;;;25.90;75.20;;;;;;5078481;28;20238;-70
2021/05/16 12:27:34;;;;;;;3.38;1.13;;;25.90;73.20;;;;;;5079472;28;20574;-70
2021/05/16 12:30:04;;;;;;;5.82;0.75;;;26.50;69.60;;;;;;5078165;28;20231;-70
2021/05/16 12:32:31;;;;;;;3.92;1.20;;;26.10;70.80;;;;;;5065546;28;20293;-70
2021/05/16 12:34:58;;;;;;;2.88;1.10;;;26.00;72.00;;;;;;5075129;28;20202;-70
2021/05/16 12:37:28;;;;;;;6.70;1.08;;;25.70;72.80;;;;;;5082090;28;20263;-70
2021/05/16 12:39:59;;;;;;;10.70;1.45;;;25.80;72.00;;;;;;5079874;28;20210;-72
2021/05/16 12:43:09;;;;;;;1.63;0.70;;;25.60;72.50;;;;;;5080099;28;20183;-72
2021/05/16 12:45:38;;;;;;;5.68;1.13;;;25.70;73.60;;;;;;5068346;28;20190;-70
2021/05/16 12:48:18;;;;;;;6.22;1.15;;;26.10;67.90;;;;;;5081485;28;20301;-70
2021/05/16 12:50:50;;;;;;;3.38;1.17;;;26.10;69.90;;;;;;5079017;28;20531;-69
2021/05/16 12:53:29;;;;;;;3.15;1.20;;;26.60;67.70;;;;;;5076794;28;20229;-70
2021/05/16 12:56:25;;;;;;;4.47;0.85;;;26.80;70.80;;;;;;5080687;28;20235;-70
2021/05/16 12:59:05;;;;;;;3.15;1.02;;;26.70;71.80;;;;;;5081179;28;20245;-70